createdAt,value
2022-12-12T04:01:49.217Z,36.93
2022-12-12T04:04:22.112Z,39.87
2022-12-12T04:06:55.109Z,42.53
2022-12-12T04:09:42.429Z,37.10
2022-12-12T04:12:32.412Z,34.97
2022-12-12T04:15:22.213Z,72.20
2022-12-12T04:18:02.063Z,37.87
2022-12-12T04:20:54.879Z,108.33
2022-12-12T04:23:32.737Z,47.40
2022-12-12T04:26:28.723Z,65.50
2022-12-12T04:29:03.981Z,38.90
2022-12-12T04:31:34.732Z,37.77
2022-12-12T04:34:13.610Z,35.53
2022-12-12T04:36:44.534Z,35.20
2022-12-12T04:39:14.161Z,34.10
2022-12-12T04:41:44.403Z,36.97
2022-12-12T04:44:13.431Z,57.00
2022-12-12T04:46:42.708Z,52.67
2022-12-12T04:49:18.750Z,97.20
2022-12-12T04:51:49.684Z,61.40
2022-12-12T04:54:23.278Z,39.33
2022-12-12T04:56:55.278Z,72.67
2022-12-12T04:59:23.913Z,74.63
2022-12-12T05:01:58.883Z,75.37
2022-12-12T05:04:32.272Z,47.03
2022-12-12T05:07:08.432Z,53.97
2022-12-12T05:09:37.053Z,40.47
2022-12-12T05:12:05.297Z,32.20
2022-12-12T05:14:33.470Z,37.77
2022-12-12T05:17:07.257Z,33.23
2022-12-12T05:19:36.496Z,32.70
2022-12-12T05:22:06.466Z,30.67
2022-12-12T05:24:34.334Z,33.80
2022-12-12T05:27:02.170Z,32.73
2022-12-12T05:29:30.075Z,32.10
2022-12-12T05:31:57.929Z,34.97
2022-12-12T05:34:25.801Z,29.93
2022-12-12T05:36:55.045Z,33.33
2022-12-12T05:39:22.947Z,32.23
2022-12-12T05:41:50.847Z,29.97
2022-12-12T05:44:18.708Z,30.70
2022-12-12T05:46:46.616Z,30.57
2022-12-12T05:49:14.635Z,28.40
2022-12-12T05:51:42.799Z,29.87
2022-12-12T05:54:13.673Z,30.93
2022-12-12T05:56:41.629Z,26.80
2022-12-12T05:59:09.553Z,30.67
2022-12-12T06:01:37.422Z,29.23
2022-12-12T06:04:05.526Z,29.63
2022-12-12T06:06:33.488Z,28.27
2022-12-12T06:09:01.409Z,28.70
2022-12-12T06:11:30.705Z,30.33
2022-12-12T06:13:58.558Z,29.67
2022-12-12T06:16:26.601Z,28.67
2022-12-12T06:18:55.994Z,32.23
2022-12-12T06:21:24.344Z,29.50
2022-12-12T06:23:52.230Z,29.20
2022-12-12T06:26:20.970Z,30.10
2022-12-12T06:28:50.574Z,30.40
2022-12-12T06:31:18.949Z,30.83
2022-12-12T06:33:46.849Z,28.20
2022-12-12T06:36:16.669Z,30.53
2022-12-12T06:38:44.727Z,29.60
2022-12-12T06:41:14.702Z,57.57
2022-12-12T06:43:42.914Z,35.80
2022-12-12T06:46:16.548Z,30.47
2022-12-12T06:48:44.963Z,28.67
2022-12-12T06:51:24.577Z,37.83
2022-12-12T06:53:54.766Z,33.78
2022-12-12T06:56:24.762Z,34.00
2022-12-12T06:58:53.301Z,42.73
2022-12-12T07:01:24.119Z,31.40
2022-12-12T07:03:52.911Z,30.17
2022-12-12T07:06:23.221Z,31.83
2022-12-12T07:08:51.787Z,29.00
2022-12-12T07:11:22.432Z,27.97
2022-12-12T07:13:51.060Z,29.40
2022-12-12T07:16:19.373Z,27.27
2022-12-12T07:18:48.685Z,25.40
2022-12-12T07:21:19.880Z,26.97
2022-12-12T07:23:48.354Z,25.93
2022-12-12T07:26:18.584Z,25.27
2022-12-12T07:28:48.161Z,25.13
2022-12-12T07:31:17.728Z,26.00
2022-12-12T07:33:49.305Z,26.90
2022-12-12T07:36:17.828Z,24.43
2022-12-12T07:38:46.052Z,24.80
2022-12-12T07:41:15.578Z,27.63
2022-12-12T07:43:45.882Z,22.07
2022-12-12T07:46:17.531Z,22.13
2022-12-12T07:48:45.924Z,23.70
2022-12-12T07:51:16.032Z,23.57
2022-12-12T07:53:44.149Z,25.30
2022-12-12T07:56:16.422Z,25.50
2022-12-12T07:58:44.428Z,24.77
2022-12-12T08:01:14.969Z,27.40
2022-12-12T08:03:44.642Z,31.00
2022-12-12T08:06:13.210Z,30.57
2022-12-12T08:08:42.744Z,31.60
2022-12-12T08:11:12.362Z,29.63
2022-12-12T08:13:41.589Z,28.60
2022-12-12T08:16:15.094Z,24.57
2022-12-12T08:18:43.003Z,28.27
2022-12-12T08:21:11.796Z,23.53
2022-12-12T08:23:42.809Z,23.53
2022-12-12T08:26:12.958Z,27.03
2022-12-12T08:28:43.901Z,44.77
2022-12-12T08:31:13.596Z,54.93
2022-12-12T08:33:41.471Z,41.83
2022-12-12T08:36:14.626Z,38.93
2022-12-12T08:38:44.526Z,29.40
2022-12-12T08:41:13.621Z,31.13
2022-12-12T08:43:43.272Z,38.53
2022-12-12T08:46:18.095Z,25.27
2022-12-12T08:48:46.279Z,25.50
2022-12-12T08:51:14.261Z,23.50
2022-12-12T08:53:45.103Z,25.10
2022-12-12T08:56:13.104Z,25.17
2022-12-12T08:58:41.041Z,27.13
2022-12-12T09:01:12.057Z,27.10
2022-12-12T09:03:40.106Z,23.97
2022-12-12T09:06:08.520Z,30.90
2022-12-12T09:08:36.394Z,27.53
2022-12-12T09:11:05.980Z,29.67
2022-12-12T09:13:34.101Z,22.07
2022-12-12T09:16:02.241Z,22.60
2022-12-12T09:18:30.461Z,23.83
2022-12-12T09:21:00.018Z,21.27
2022-12-12T09:23:29.409Z,21.80
2022-12-12T09:25:58.839Z,20.00
2022-12-12T09:28:28.102Z,18.30
2022-12-12T09:30:56.063Z,23.50
2022-12-12T09:33:24.071Z,21.23
2022-12-12T09:35:59.892Z,20.93
2022-12-12T09:38:28.763Z,21.60
2022-12-12T09:40:59.711Z,20.30
2022-12-12T09:43:33.814Z,20.07
2022-12-12T09:46:03.807Z,23.17
2022-12-12T09:48:41.634Z,22.00
2022-12-12T09:51:10.595Z,21.57
2022-12-12T09:53:39.706Z,21.67
2022-12-12T09:56:12.264Z,23.43
2022-12-12T09:58:52.589Z,24.43
2022-12-12T10:01:32.203Z,23.53
2022-12-12T10:04:08.754Z,27.13
2022-12-12T10:06:42.586Z,22.00
2022-12-12T10:09:41.347Z,20.67
2022-12-12T10:12:13.899Z,20.40
2022-12-12T10:14:46.737Z,22.37
2022-12-12T10:17:18.634Z,21.90
2022-12-12T10:19:52.329Z,21.07
2022-12-12T10:22:29.709Z,20.10
2022-12-12T10:25:04.315Z,20.37
2022-12-12T10:27:32.226Z,23.17
2022-12-12T10:30:14.821Z,23.77
2022-12-12T10:32:54.348Z,23.23
2022-12-12T10:35:30.747Z,23.77
2022-12-12T10:38:12.553Z,26.00
2022-12-12T10:40:59.220Z,21.57
2022-12-12T10:43:32.698Z,20.90
2022-12-12T10:46:17.705Z,24.00
2022-12-12T10:48:48.720Z,23.50
2022-12-12T10:51:19.659Z,23.07
2022-12-12T10:53:47.905Z,19.83
2022-12-12T10:56:21.341Z,21.37
2022-12-12T10:58:55.142Z,21.47
2022-12-12T11:01:52.279Z,22.87
2022-12-12T11:04:16.663Z,20.17
2022-12-12T11:06:49.071Z,20.20
2022-12-12T11:09:20.273Z,18.63
2022-12-12T11:11:58.755Z,21.73
2022-12-12T11:14:32.025Z,22.87
2022-12-12T11:17:01.362Z,21.23
2022-12-12T11:19:38.532Z,20.53
2022-12-12T11:22:07.657Z,20.90
2022-12-12T11:24:37.862Z,24.03
2022-12-12T11:27:08.187Z,17.67
2022-12-12T11:29:43.589Z,19.70
2022-12-12T11:32:15.439Z,20.50
2022-12-12T11:34:48.092Z,18.17
2022-12-12T11:37:18.038Z,16.80
2022-12-12T11:39:47.722Z,15.37
2022-12-12T11:42:22.463Z,16.53
2022-12-12T11:45:00.467Z,15.10
2022-12-12T11:47:35.765Z,17.67
2022-12-12T11:50:18.128Z,18.27
2022-12-12T11:52:46.954Z,17.97
2022-12-12T11:55:17.057Z,17.73
2022-12-12T11:58:03.674Z,15.27
2022-12-12T12:00:40.214Z,16.67
2022-12-12T12:03:32.378Z,18.33
2022-12-12T12:06:19.010Z,14.57
2022-12-12T12:09:10.346Z,14.73
2022-12-12T12:11:48.108Z,17.40
2022-12-12T12:14:29.250Z,14.37
2022-12-12T12:17:04.827Z,14.97
2022-12-12T12:19:42.414Z,19.57
2022-12-12T12:22:20.921Z,18.17
2022-12-12T12:25:07.907Z,15.17
2022-12-12T12:27:41.225Z,15.07
2022-12-12T12:30:20.263Z,16.03
2022-12-12T12:33:09.353Z,14.23
2022-12-12T12:35:52.093Z,18.33
2022-12-12T12:38:27.605Z,18.40
2022-12-12T12:41:18.039Z,19.87
2022-12-12T12:43:58.907Z,17.83
2022-12-12T12:46:37.563Z,18.10
2022-12-12T12:49:12.620Z,17.53
2022-12-12T12:51:50.282Z,18.83
2022-12-12T12:54:23.873Z,21.90
2022-12-12T12:56:57.294Z,18.33
2022-12-12T12:59:29.908Z,19.67
2022-12-12T13:02:02.394Z,19.57
2022-12-12T13:04:35.542Z,18.77
2022-12-12T13:07:13.113Z,18.00
2022-12-12T13:09:45.098Z,17.53
2022-12-12T13:12:31.145Z,22.07
2022-12-12T13:15:02.906Z,19.20
2022-12-12T13:17:45.281Z,23.33
2022-12-12T13:20:17.243Z,19.03
2022-12-12T13:22:57.573Z,24.70
2022-12-12T13:25:35.111Z,21.90
2022-12-12T13:28:08.268Z,20.07
2022-12-12T13:30:49.728Z,19.50
2022-12-12T13:33:37.717Z,20.43
2022-12-12T13:36:11.105Z,18.97
2022-12-12T13:38:41.925Z,16.97
2022-12-12T13:41:11.242Z,18.47
2022-12-12T13:43:48.293Z,18.57
2022-12-12T13:46:42.107Z,18.00
2022-12-12T13:49:25.608Z,22.27
2022-12-12T13:52:13.601Z,19.90
2022-12-12T13:54:46.721Z,20.63
2022-12-12T13:57:25.200Z,22.20
2022-12-12T14:00:27.109Z,22.03
2022-12-12T14:03:18.283Z,18.30
2022-12-12T14:05:47.892Z,21.57
2022-12-12T14:08:29.150Z,20.20
2022-12-12T14:11:03.663Z,18.63
2022-12-12T14:14:01.377Z,20.07
2022-12-12T14:16:30.593Z,20.63
2022-12-12T14:19:07.950Z,19.40
2022-12-12T14:21:43.604Z,27.70
2022-12-12T14:24:54.166Z,23.80
2022-12-12T14:28:13.664Z,24.27
2022-12-12T14:30:47.992Z,23.60
2022-12-12T14:34:09.028Z,24.37
2022-12-12T14:37:07.828Z,23.27
2022-12-12T14:40:04.588Z,21.90
2022-12-12T14:43:20.661Z,21.57
2022-12-12T14:45:37.302Z,21.90
2022-12-12T14:48:16.234Z,21.97
2022-12-12T14:50:54.454Z,23.43
2022-12-12T14:53:24.836Z,24.23
2022-12-12T14:55:56.855Z,23.73
2022-12-12T14:58:32.934Z,21.90
2022-12-12T15:01:03.309Z,26.80
2022-12-12T15:03:36.036Z,24.60
2022-12-12T15:06:27.993Z,23.03
2022-12-12T15:08:58.093Z,23.37
2022-12-12T15:11:31.380Z,23.80
2022-12-12T15:14:03.168Z,23.77
2022-12-12T15:16:40.731Z,23.93
2022-12-12T15:19:16.523Z,24.20
2022-12-12T15:21:45.365Z,22.47
2022-12-12T15:24:20.176Z,20.50
2022-12-12T15:26:49.896Z,21.17
2022-12-12T15:29:22.367Z,23.00
2022-12-12T15:31:57.065Z,22.90
2022-12-12T15:34:40.905Z,22.83
2022-12-12T15:37:27.925Z,24.40
2022-12-12T15:40:14.928Z,22.70
2022-12-12T15:42:46.370Z,22.27
2022-12-12T15:45:21.205Z,23.20
2022-12-12T15:47:49.426Z,22.77
2022-12-12T15:50:19.671Z,25.10
2022-12-12T15:52:57.790Z,26.70
2022-12-12T15:55:25.900Z,25.80
2022-12-12T15:57:54.237Z,25.33
2022-12-12T16:00:32.084Z,25.23
2022-12-12T16:03:04.022Z,22.57
2022-12-12T16:05:34.382Z,23.53
2022-12-12T16:08:32.063Z,26.20
2022-12-12T16:11:02.283Z,27.17
2022-12-12T16:13:37.804Z,22.47
2022-12-12T16:16:34.916Z,22.70
2022-12-12T16:19:04.010Z,27.57
2022-12-12T16:21:32.293Z,24.03
2022-12-12T16:24:12.198Z,26.83
2022-12-12T16:26:40.083Z,25.37
2022-12-12T16:29:08.073Z,24.90
2022-12-12T16:31:37.395Z,28.63
2022-12-12T16:34:07.426Z,27.57
2022-12-12T16:36:41.655Z,23.93
2022-12-12T16:39:13.665Z,22.53
2022-12-12T16:41:42.041Z,22.77
2022-12-12T16:44:09.889Z,26.93
2022-12-12T16:46:39.136Z,28.70
2022-12-12T16:49:15.107Z,28.10
2022-12-12T16:51:43.621Z,28.43
2022-12-12T16:54:15.848Z,30.60
2022-12-12T16:56:44.005Z,23.03
2022-12-12T16:59:11.869Z,27.73
2022-12-12T17:01:41.557Z,23.67
2022-12-12T17:04:19.249Z,24.77
2022-12-12T17:06:47.180Z,24.13
2022-12-12T17:09:15.207Z,24.67
2022-12-12T17:11:43.195Z,26.43
2022-12-12T17:14:17.265Z,27.03
2022-12-12T17:16:46.607Z,26.57
2022-12-12T17:19:14.522Z,30.80
2022-12-12T17:21:42.407Z,27.30
2022-12-12T17:24:10.414Z,32.73
2022-12-12T17:26:39.145Z,31.30
2022-12-12T17:29:08.130Z,25.93
2022-12-12T17:31:36.324Z,27.07
2022-12-12T17:34:05.956Z,28.17
2022-12-12T17:36:34.595Z,26.07
2022-12-12T17:39:02.466Z,31.10
2022-12-12T17:41:30.317Z,26.93
2022-12-12T17:43:58.931Z,26.80
2022-12-12T17:46:28.525Z,27.73
2022-12-12T17:48:58.658Z,28.17
2022-12-12T17:51:27.922Z,23.70
2022-12-12T17:53:55.914Z,27.07
2022-12-12T17:56:25.285Z,26.10
2022-12-12T17:58:54.316Z,25.23
2022-12-12T18:01:24.890Z,28.47
2022-12-12T18:03:53.563Z,27.33
2022-12-12T18:06:23.218Z,25.97
2022-12-12T18:08:54.468Z,26.90
2022-12-12T18:11:26.704Z,27.77
2022-12-12T18:13:55.167Z,27.90
2022-12-12T18:16:24.428Z,27.53
2022-12-12T18:18:52.975Z,38.97
2022-12-12T18:21:51.854Z,37.23
2022-12-12T18:24:12.970Z,30.50
2022-12-12T18:26:41.047Z,29.87
2022-12-12T18:29:11.658Z,28.67
2022-12-12T18:31:39.967Z,28.70
2022-12-12T18:34:08.170Z,29.63
2022-12-12T18:36:36.029Z,29.80
2022-12-12T18:39:06.948Z,29.87
2022-12-12T18:41:37.358Z,30.73
2022-12-12T18:44:07.054Z,32.23
2022-12-12T18:46:40.558Z,32.23
2022-12-12T18:49:10.422Z,29.60
2022-12-12T18:51:38.937Z,32.67
2022-12-12T18:54:12.782Z,34.87
2022-12-12T18:56:44.965Z,32.90
2022-12-12T18:59:13.097Z,30.67
2022-12-12T19:01:41.142Z,31.80
2022-12-12T19:04:13.455Z,29.77
2022-12-12T19:06:42.868Z,31.80
2022-12-12T19:09:14.423Z,31.17
2022-12-12T19:11:44.302Z,31.00
2022-12-12T19:14:13.894Z,29.43
2022-12-12T19:16:42.011Z,31.20
2022-12-12T19:19:10.100Z,31.97
2022-12-12T19:21:38.828Z,33.87
2022-12-12T19:24:10.500Z,33.43
2022-12-12T19:26:39.656Z,32.33
2022-12-12T19:29:11.902Z,36.77
2022-12-12T19:31:40.269Z,37.03
2022-12-12T19:34:09.563Z,32.93
2022-12-12T19:36:38.952Z,34.43
2022-12-12T19:39:08.742Z,34.17
2022-12-12T19:41:37.020Z,33.80
2022-12-12T19:44:08.597Z,37.37
2022-12-12T19:46:37.898Z,35.53
2022-12-12T19:49:08.421Z,32.13
2022-12-12T19:51:39.054Z,35.63
2022-12-12T19:54:09.325Z,36.60
2022-12-12T19:56:40.582Z,34.80
2022-12-12T19:59:09.382Z,37.10
2022-12-12T20:01:39.821Z,34.07
2022-12-12T20:04:09.865Z,37.43
2022-12-12T20:06:44.564Z,39.37
2022-12-12T20:09:14.209Z,40.30
2022-12-12T20:11:43.286Z,39.63
2022-12-12T20:14:13.828Z,34.37
2022-12-12T20:16:43.507Z,39.20
2022-12-12T20:19:12.191Z,42.63
2022-12-12T20:24:32.409Z,37.10
2022-12-12T20:27:02.946Z,37.00
2022-12-12T20:29:31.050Z,39.43
2022-12-12T20:32:01.254Z,39.53
2022-12-12T20:34:29.656Z,41.47
2022-12-12T20:36:58.503Z,37.57
2022-12-12T20:39:26.433Z,35.90
2022-12-12T20:41:56.509Z,38.50
2022-12-12T20:44:25.552Z,40.97
2022-12-12T20:46:54.116Z,39.83
2022-12-12T20:49:24.676Z,40.50
2022-12-12T20:51:57.637Z,42.10
2022-12-12T20:54:27.239Z,42.37
2022-12-12T20:56:55.728Z,39.03
2022-12-12T20:59:24.007Z,36.57
2022-12-12T21:01:52.158Z,40.33
2022-12-12T21:04:20.573Z,41.37
2022-12-12T21:06:51.326Z,42.60
2022-12-12T21:09:25.951Z,44.10
2022-12-12T21:11:55.656Z,39.73
2022-12-12T21:14:24.121Z,34.30
2022-12-12T21:16:52.899Z,36.10
2022-12-12T21:19:21.957Z,37.23
2022-12-12T21:21:51.454Z,39.90
2022-12-12T21:24:19.689Z,34.43
2022-12-12T21:26:48.019Z,33.97
2022-12-12T21:29:16.986Z,31.07
2022-12-12T21:31:50.994Z,36.17
2022-12-12T21:34:20.852Z,37.23
2022-12-12T21:36:52.812Z,31.97
2022-12-12T21:39:21.898Z,33.07
2022-12-12T21:41:51.104Z,33.23
2022-12-12T21:44:19.228Z,37.17
2022-12-12T21:46:47.100Z,34.83
2022-12-12T21:49:26.661Z,36.87
2022-12-12T21:51:58.180Z,34.97
2022-12-12T21:54:28.893Z,37.60
2022-12-12T21:56:57.446Z,36.43
2022-12-12T21:59:26.073Z,34.87
2022-12-12T22:01:55.465Z,38.43
2022-12-12T22:04:23.366Z,36.13
2022-12-12T22:06:51.303Z,36.27
2022-12-12T22:09:20.490Z,36.00
2022-12-12T22:11:50.595Z,37.63
2022-12-12T22:14:21.481Z,38.77
2022-12-12T22:16:50.036Z,38.40
2022-12-12T22:19:18.434Z,39.47
2022-12-12T22:21:47.947Z,40.20
2022-12-12T22:24:16.546Z,39.40
2022-12-12T22:26:47.812Z,37.93
2022-12-12T22:29:17.524Z,33.03
2022-12-12T22:31:45.962Z,32.70
2022-12-12T22:34:16.670Z,33.27
2022-12-12T22:36:46.130Z,32.33
2022-12-12T22:39:16.186Z,34.17
2022-12-12T22:41:46.085Z,37.97
2022-12-12T22:44:16.572Z,35.53
2022-12-12T22:46:45.785Z,33.97
2022-12-12T22:49:15.032Z,32.27
2022-12-12T22:51:43.898Z,33.93
2022-12-12T22:54:12.342Z,37.30
2022-12-12T22:56:41.364Z,33.23
2022-12-12T22:59:13.110Z,37.07
